Fort Sheridan, Illinois
Current Conditions -  °F | °C
As of 2:04 PM on Sunday 23 Nov 2014 (Local Time) from KPWK Reporting Station
Light Rain Light Rain  
Wind Chill: 51°   Ceiling: 1500
Heat Index: 51°   Visibility: 8mi
Dew Point: 48°   Wind: 9mph
Humidity: 89%   Direction: 150°SSE
Pressure: 29.54"   Gusts: NA
Location:  42.22°N, 87.81°W
Report Text: KPWK 232004Z 15008KT 8SM -RA OVC015 11/09 A2954 RMK AO2 P0000 T01060089
Loading
Personal Weather Stations






























Interactive Weather Map New forecast layout! Learn more

10-Day Weather Forecast

Advertisements
Track Severe Weather on mobile